createdAt,value
2023-05-24T00:00:00.389Z,8.5
2023-05-24T00:10:00.350Z,7.5
2023-05-24T00:20:00.418Z,7.2
2023-05-24T00:30:00.409Z,6.5
2023-05-24T00:40:00.389Z,5.3
2023-05-24T00:50:00.363Z,6.4
2023-05-24T01:00:00.359Z,6.1
2023-05-24T01:10:00.356Z,8.6
2023-05-24T01:20:00.440Z,8.9
2023-05-24T01:30:00.376Z,9.4
2023-05-24T01:40:00.389Z,10.4
2023-05-24T01:50:00.373Z,10.4
2023-05-24T02:00:00.370Z,11.0
2023-05-24T02:10:00.369Z,10.8
2023-05-24T02:20:00.453Z,13.5
2023-05-24T02:30:00.369Z,13.7
2023-05-24T02:40:00.421Z,17.2
2023-05-24T02:50:00.401Z,25.5
2023-05-24T03:00:00.414Z,25.8
2023-05-24T03:10:00.390Z,25.9
2023-05-24T03:20:00.480Z,25.5
2023-05-24T03:30:00.406Z,20.9
2023-05-24T03:40:00.345Z,21.5
2023-05-24T03:50:00.375Z,19.5
2023-05-24T04:00:00.413Z,17.6
2023-05-24T04:10:00.366Z,18.2
2023-05-24T04:20:00.375Z,18.4
2023-05-24T04:30:00.503Z,18.6
2023-05-24T04:40:00.381Z,20.9
2023-05-24T04:50:00.362Z,21.5
2023-05-24T05:00:00.417Z,21.1
2023-05-24T05:10:00.432Z,20.2
2023-05-24T05:20:00.427Z,20.3
2023-05-24T05:30:00.358Z,20.0
2023-05-24T05:40:00.371Z,18.6
2023-05-24T05:50:00.432Z,20.4
2023-05-24T06:00:00.369Z,20.0
2023-05-24T11:40:00.627Z,9.2
2023-05-24T11:50:00.430Z,8.2
2023-05-24T12:00:00.393Z,7.6
2023-05-24T12:10:00.424Z,7.2
2023-05-24T12:20:00.523Z,8.2
2023-05-24T12:30:00.390Z,7.3
2023-05-24T12:40:00.408Z,7.4
2023-05-24T12:50:00.453Z,7.4
2023-05-24T13:00:00.417Z,7.3
2023-05-24T13:10:00.408Z,7.4
2023-05-24T13:20:00.503Z,7.0
2023-05-24T13:30:01.505Z,6.9
2023-05-24T13:40:00.400Z,6.4
2023-05-24T13:50:00.421Z,6.5
2023-05-24T14:00:00.483Z,6.1
2023-05-24T14:10:00.404Z,6.2
2023-05-24T14:20:00.573Z,6.8
2023-05-24T14:30:00.405Z,6.5
2023-05-24T14:40:00.676Z,6.7
2023-05-24T14:50:00.404Z,7.1
2023-05-24T15:00:00.419Z,6.7
2023-05-24T15:10:00.406Z,5.7
2023-05-24T15:20:00.500Z,6.5
2023-05-24T15:30:00.427Z,5.7
2023-05-24T15:40:00.415Z,7.3
2023-05-24T15:50:00.404Z,7.4
2023-05-24T16:00:00.417Z,7.1
2023-05-24T16:10:00.409Z,7.6
2023-05-24T16:20:00.468Z,8.0
2023-05-24T16:30:00.390Z,9.4
2023-05-24T16:40:00.397Z,9.8
2023-05-24T16:50:00.416Z,9.6
2023-05-24T17:00:00.409Z,9.2
2023-05-24T17:10:00.428Z,9.2
2023-05-24T17:20:00.554Z,8.5
2023-05-24T17:30:00.414Z,8.5
2023-05-24T17:40:00.423Z,8.0
2023-05-24T17:50:00.421Z,8.5
2023-05-24T18:00:00.407Z,7.5
2023-05-24T18:10:00.784Z,7.5
2023-05-24T18:20:00.471Z,7.9
2023-05-24T18:30:00.397Z,8.0
2023-05-24T18:40:00.481Z,7.0
2023-05-24T18:50:00.418Z,7.4
2023-05-24T19:00:00.440Z,8.0
2023-05-24T19:10:00.403Z,9.4
2023-05-24T19:20:00.446Z,8.8
2023-05-24T19:30:00.422Z,9.2
2023-05-24T19:40:00.440Z,7.8
2023-05-24T19:50:00.401Z,8.7
2023-05-24T20:00:00.413Z,9.1
2023-05-24T20:10:00.409Z,9.2
2023-05-24T20:20:00.534Z,9.4
2023-05-24T20:30:00.417Z,10.0
2023-05-24T20:40:00.432Z,9.5
2023-05-24T20:50:00.414Z,10.9
2023-05-24T21:00:00.414Z,10.1
2023-05-24T21:10:00.429Z,11.6
2023-05-24T21:20:00.462Z,10.4
2023-05-24T21:30:00.413Z,11.3
2023-05-24T21:40:00.448Z,10.3
2023-05-24T21:50:00.399Z,11.2
2023-05-24T22:00:00.443Z,10.6
2023-05-24T22:10:00.405Z,10.9
2023-05-24T22:20:00.407Z,11.6
2023-05-24T22:30:00.454Z,11.4
2023-05-24T22:40:00.415Z,10.8
2023-05-24T22:50:00.396Z,13.0
2023-05-24T23:00:00.395Z,8.7
2023-05-24T23:10:00.398Z,9.8
2023-05-24T23:20:00.401Z,13.0
2023-05-24T23:30:00.385Z,9.2
2023-05-24T23:40:00.419Z,8.6
2023-05-24T23:50:00.447Z,9.7
